createdAt,value
2019-03-23T00:02:15.671Z,62.70
2019-03-23T00:04:42.526Z,67.23
2019-03-23T00:07:08.166Z,66.20
2019-03-23T00:09:33.857Z,67.57
2019-03-23T00:12:00.147Z,62.57
2019-03-23T00:14:25.972Z,63.30
2019-03-23T00:16:51.534Z,66.13
2019-03-23T00:19:17.074Z,64.30
2019-03-23T00:21:42.693Z,65.13
2019-03-23T00:24:08.233Z,69.10
2019-03-23T00:26:33.795Z,61.67
2019-03-23T00:28:59.472Z,61.97
2019-03-23T00:31:25.100Z,64.03
2019-03-23T00:33:50.648Z,63.80
2019-03-23T00:36:16.258Z,63.50
2019-03-23T00:38:42.193Z,66.80
2019-03-23T00:41:07.733Z,66.30
2019-03-23T00:43:33.537Z,68.17
2019-03-23T00:46:00.315Z,63.37
2019-03-23T00:48:25.864Z,67.93
2019-03-23T00:50:51.447Z,63.77
2019-03-23T00:53:18.350Z,62.37
2019-03-23T00:55:43.881Z,66.10
2019-03-23T00:58:09.432Z,64.30
2019-03-23T01:00:34.992Z,61.97
2019-03-23T01:03:00.602Z,66.40
2019-03-23T01:05:26.166Z,67.07
2019-03-23T01:07:51.962Z,65.30
2019-03-23T01:10:17.506Z,66.20
2019-03-23T01:12:43.051Z,68.97
2019-03-23T01:15:09.493Z,69.57
2019-03-23T01:17:35.155Z,71.57
2019-03-23T01:20:00.734Z,67.43
2019-03-23T01:22:26.309Z,67.90
2019-03-23T01:24:51.838Z,69.97
2019-03-23T01:27:17.403Z,69.67
2019-03-23T01:29:42.940Z,70.10
2019-03-23T01:32:08.552Z,72.33
2019-03-23T01:34:34.337Z,72.17
2019-03-23T01:37:02.924Z,70.80
2019-03-23T01:39:27.699Z,68.30
2019-03-23T01:41:53.473Z,62.20
2019-03-23T01:44:19.146Z,61.67
2019-03-23T01:46:44.707Z,60.87
2019-03-23T01:49:10.250Z,57.93
2019-03-23T01:51:35.845Z,59.73
2019-03-23T01:54:02.633Z,58.40
2019-03-23T01:56:28.342Z,57.30
2019-03-23T01:58:53.908Z,58.10
2019-03-23T02:01:19.482Z,58.27
2019-03-23T02:03:45.043Z,58.40
2019-03-23T02:06:10.786Z,55.10
2019-03-23T02:08:36.425Z,53.67
2019-03-23T02:11:02.056Z,53.13
2019-03-23T02:13:27.587Z,51.50
2019-03-23T02:15:53.180Z,49.63
2019-03-23T02:18:18.705Z,48.03
2019-03-23T02:20:45.352Z,48.67
2019-03-23T02:23:10.954Z,47.30
2019-03-23T02:25:36.553Z,47.20
2019-03-23T02:28:02.464Z,48.13
2019-03-23T02:30:28.879Z,48.03
2019-03-23T02:32:54.560Z,47.27
2019-03-23T02:35:20.116Z,45.30
2019-03-23T02:37:45.706Z,45.30
2019-03-23T02:40:11.572Z,46.00
2019-03-23T02:42:37.186Z,45.23
2019-03-23T02:45:04.635Z,44.37
2019-03-23T02:47:30.228Z,44.60
2019-03-23T02:49:55.804Z,46.70
2019-03-23T02:52:21.366Z,48.83
2019-03-23T02:54:46.943Z,46.60
2019-03-23T02:57:12.588Z,46.87
2019-03-23T02:59:38.261Z,48.53
2019-03-23T03:02:03.818Z,48.13
2019-03-23T03:04:29.428Z,49.90
2019-03-23T03:06:54.970Z,49.40
2019-03-23T03:09:21.536Z,50.47
2019-03-23T03:11:47.075Z,54.20
2019-03-23T03:14:12.661Z,52.87
2019-03-23T03:16:38.223Z,52.10
2019-03-23T03:19:03.865Z,52.97
2019-03-23T03:21:29.473Z,55.27
2019-03-23T03:23:55.001Z,53.70
2019-03-23T03:26:21.710Z,50.57
2019-03-23T03:28:47.236Z,51.73
2019-03-23T03:31:12.837Z,53.70
2019-03-23T03:33:38.539Z,53.00
2019-03-23T03:36:04.158Z,53.70
2019-03-23T03:38:29.804Z,53.93
2019-03-23T03:40:55.394Z,52.30
2019-03-23T03:43:20.982Z,51.07
2019-03-23T03:45:46.760Z,53.23
2019-03-23T03:48:12.332Z,54.27
2019-03-23T03:50:38.101Z,54.20
2019-03-23T03:53:03.788Z,55.40
2019-03-23T03:55:29.443Z,56.50
2019-03-23T03:57:55.007Z,56.27
2019-03-23T04:00:20.576Z,57.73
2019-03-23T04:02:46.466Z,59.03
2019-03-23T04:05:12.277Z,61.83
2019-03-23T04:07:37.896Z,60.73
2019-03-23T04:10:04.578Z,61.30
2019-03-23T04:12:30.153Z,61.30
2019-03-23T04:14:55.963Z,58.43
2019-03-23T04:17:21.578Z,59.03
2019-03-23T04:19:47.281Z,56.70
2019-03-23T04:22:12.942Z,59.43
2019-03-23T04:24:38.467Z,58.30
2019-03-23T04:27:04.547Z,59.57
2019-03-23T04:29:29.836Z,62.60
2019-03-23T04:31:55.189Z,61.50
2019-03-23T04:34:20.857Z,67.30
2019-03-23T04:36:46.527Z,63.20
2019-03-23T04:39:12.097Z,65.07
2019-03-23T04:41:38.890Z,64.03
2019-03-23T04:44:04.622Z,61.00
2019-03-23T04:46:30.161Z,65.30
2019-03-23T04:48:56.115Z,60.40
2019-03-23T04:51:21.727Z,61.60
2019-03-23T04:53:47.324Z,60.13
2019-03-23T04:56:12.990Z,59.90
2019-03-23T04:58:38.561Z,61.07
2019-03-23T05:01:04.459Z,60.73
2019-03-23T05:03:31.383Z,60.63
2019-03-23T05:05:57.086Z,59.47
2019-03-23T05:08:29.185Z,61.27
2019-03-23T05:10:50.111Z,59.90
2019-03-23T05:13:15.755Z,61.90
2019-03-23T05:15:41.327Z,58.10
2019-03-23T05:18:06.881Z,57.07
2019-03-23T05:20:32.632Z,57.37
2019-03-23T05:22:58.506Z,60.57
2019-03-23T05:25:27.139Z,58.53
2019-03-23T05:27:52.662Z,59.50
2019-03-23T05:30:18.241Z,56.93
2019-03-23T05:32:43.787Z,61.00
2019-03-23T05:35:09.363Z,61.00
2019-03-23T05:37:35.002Z,62.37
2019-03-23T05:40:00.576Z,62.50
2019-03-23T05:42:26.188Z,57.93
2019-03-23T05:44:51.867Z,57.40
2019-03-23T05:47:17.644Z,56.70
2019-03-23T05:49:43.182Z,58.20
2019-03-23T05:52:08.770Z,56.93
2019-03-23T05:54:34.299Z,55.10
2019-03-23T05:56:59.854Z,57.27
2019-03-23T05:59:25.496Z,54.17
2019-03-23T06:01:51.134Z,56.10
2019-03-23T06:04:26.148Z,59.70
2019-03-23T06:06:51.695Z,58.90
2019-03-23T06:09:17.607Z,59.77
2019-03-23T06:11:43.211Z,58.40
2019-03-23T06:14:08.795Z,58.77
2019-03-23T06:16:34.503Z,56.40
2019-03-23T06:19:00.110Z,59.10
2019-03-23T06:21:26.000Z,54.77
2019-03-23T06:23:51.691Z,90.10
2019-03-23T06:26:17.311Z,108.73
2019-03-23T06:28:43.325Z,56.10
2019-03-23T06:31:08.945Z,57.67
2019-03-23T06:33:34.519Z,56.97
2019-03-23T06:36:00.920Z,56.07
2019-03-23T06:38:26.503Z,56.53
2019-03-23T06:40:52.206Z,58.60
2019-03-23T06:43:17.883Z,53.37
2019-03-23T06:45:43.473Z,53.17
2019-03-23T06:48:09.133Z,53.63
2019-03-23T06:50:34.869Z,50.20
2019-03-23T06:53:00.448Z,50.93
2019-03-23T06:55:26.042Z,50.00
2019-03-23T07:00:55.982Z,47.87
2019-03-23T07:03:22.642Z,49.90
2019-03-23T07:05:48.222Z,50.60
2019-03-23T07:08:14.072Z,51.53
2019-03-23T07:10:53.475Z,51.13
2019-03-23T07:13:23.049Z,50.83
2019-03-23T07:15:48.591Z,53.70
2019-03-23T07:18:14.174Z,51.23
2019-03-23T07:20:39.817Z,52.73
2019-03-23T07:23:05.365Z,53.10
2019-03-23T07:25:30.928Z,50.93
2019-03-23T07:27:56.559Z,58.00
2019-03-23T07:30:22.238Z,60.03
2019-03-23T07:32:47.806Z,52.80
2019-03-23T07:35:13.765Z,51.90
2019-03-23T07:37:39.279Z,51.47
2019-03-23T07:40:05.355Z,52.47
2019-03-23T07:42:32.024Z,52.53
2019-03-23T07:45:04.422Z,50.27
2019-03-23T07:47:30.086Z,51.50
2019-03-23T07:49:55.716Z,53.00
2019-03-23T07:52:21.319Z,50.87
2019-03-23T07:54:46.915Z,51.37
2019-03-23T07:57:12.548Z,51.40
2019-03-23T07:59:38.272Z,49.67
2019-03-23T08:02:03.947Z,48.80
2019-03-23T08:04:29.535Z,49.27
2019-03-23T08:06:55.184Z,49.90
2019-03-23T08:09:23.499Z,47.00
2019-03-23T08:11:49.118Z,45.47
2019-03-23T08:14:14.786Z,49.20
2019-03-23T08:16:40.406Z,50.47
2019-03-23T08:19:06.112Z,48.73
2019-03-23T08:21:31.637Z,49.27
2019-03-23T08:23:57.214Z,48.80
2019-03-23T08:26:22.846Z,48.43
2019-03-23T08:28:48.406Z,50.93
2019-03-23T08:31:14.013Z,50.83
2019-03-23T08:33:39.620Z,52.33
2019-03-23T08:36:05.455Z,63.53
2019-03-23T08:38:31.173Z,49.13
2019-03-23T08:40:56.797Z,50.73
2019-03-23T08:43:22.348Z,47.57
2019-03-23T08:45:48.942Z,49.73
2019-03-23T08:48:16.390Z,45.30
2019-03-23T08:50:42.884Z,46.50
2019-03-23T08:53:09.055Z,46.93
2019-03-23T08:55:34.838Z,48.80
2019-03-23T08:58:00.608Z,47.87
2019-03-23T09:00:26.300Z,47.50
2019-03-23T09:02:52.263Z,47.00
2019-03-23T09:05:17.941Z,48.60
2019-03-23T09:07:43.501Z,49.70
2019-03-23T09:10:09.644Z,47.37
2019-03-23T09:12:35.324Z,47.50
2019-03-23T09:15:00.975Z,48.83
2019-03-23T09:17:26.804Z,47.47
2019-03-23T09:19:52.560Z,48.20
2019-03-23T09:22:18.216Z,47.30
2019-03-23T09:24:44.792Z,45.83
2019-03-23T09:27:12.522Z,46.80
2019-03-23T09:29:38.639Z,50.90
2019-03-23T09:32:04.206Z,48.83
2019-03-23T09:34:29.785Z,49.87
2019-03-23T09:36:55.416Z,47.60
2019-03-23T09:39:21.012Z,47.77
2019-03-23T09:41:46.674Z,44.50
2019-03-23T09:44:12.371Z,47.47
2019-03-23T09:46:38.043Z,46.43
2019-03-23T09:49:03.628Z,47.13
2019-03-23T09:51:29.450Z,47.57
2019-03-23T09:53:56.254Z,46.90
2019-03-23T09:56:21.916Z,44.63
2019-03-23T09:58:47.548Z,46.93
2019-03-23T10:01:13.225Z,46.50
2019-03-23T10:03:39.785Z,46.87
2019-03-23T10:06:06.058Z,48.10
2019-03-23T10:08:31.774Z,48.00
2019-03-23T10:10:57.428Z,49.70
2019-03-23T10:13:23.126Z,48.70
2019-03-23T10:15:48.676Z,47.80
2019-03-23T10:18:14.348Z,47.00
2019-03-23T10:20:41.062Z,48.67
2019-03-23T10:23:26.807Z,49.67
2019-03-23T10:25:52.927Z,50.90
2019-03-23T10:28:18.480Z,50.10
2019-03-23T10:30:44.126Z,48.77
2019-03-23T10:33:09.977Z,47.70
2019-03-23T10:35:35.594Z,49.10
2019-03-23T10:38:01.175Z,49.23
2019-03-23T10:40:32.543Z,50.77
2019-03-23T10:42:54.265Z,49.30
2019-03-23T10:45:19.887Z,48.97
2019-03-23T10:47:46.008Z,50.37
2019-03-23T10:50:11.591Z,49.73
2019-03-23T10:52:37.291Z,51.13
2019-03-23T10:55:19.603Z,49.83
2019-03-23T10:57:52.479Z,50.27
2019-03-23T11:00:18.369Z,50.77
2019-03-23T11:02:44.245Z,49.13
2019-03-23T11:05:10.177Z,49.90
2019-03-23T11:07:35.698Z,49.63
2019-03-23T11:10:04.132Z,50.10
2019-03-23T11:12:29.768Z,50.67
2019-03-23T11:14:55.444Z,49.87
2019-03-23T11:17:21.476Z,48.30
2019-03-23T11:19:47.321Z,48.83
2019-03-23T11:22:13.105Z,48.80
2019-03-23T11:24:38.722Z,49.43
2019-03-23T11:27:04.435Z,49.73
2019-03-23T11:29:30.113Z,49.17
2019-03-23T11:31:56.958Z,50.70
2019-03-23T11:34:22.515Z,49.93
2019-03-23T11:36:48.264Z,47.50
2019-03-23T11:39:13.894Z,48.90
2019-03-23T11:41:39.722Z,49.20
2019-03-23T11:44:05.392Z,51.93
2019-03-23T11:46:31.208Z,50.13
2019-03-23T11:48:56.886Z,47.40
2019-03-23T11:51:22.466Z,48.70
2019-03-23T11:53:48.277Z,50.50
2019-03-23T11:56:13.890Z,50.73
2019-03-23T11:58:39.568Z,49.73
2019-03-23T12:01:05.274Z,52.37
2019-03-23T12:03:30.888Z,53.23
2019-03-23T12:05:56.461Z,47.67
2019-03-23T12:08:22.074Z,51.60
2019-03-23T12:10:47.763Z,49.30
2019-03-23T12:13:13.588Z,51.37
2019-03-23T12:15:39.271Z,50.40
2019-03-23T12:18:04.859Z,48.10
2019-03-23T12:20:30.559Z,49.17
2019-03-23T12:22:56.238Z,50.10
2019-03-23T12:25:21.816Z,49.77
2019-03-23T12:27:47.400Z,52.33
2019-03-23T12:30:14.921Z,49.90
2019-03-23T12:32:40.498Z,51.97
2019-03-23T12:35:06.163Z,53.10
2019-03-23T12:37:31.962Z,51.10
2019-03-23T12:39:57.527Z,47.40
2019-03-23T12:42:23.093Z,49.90
2019-03-23T12:44:49.696Z,47.50
2019-03-23T12:47:15.388Z,46.17
2019-03-23T12:49:41.150Z,46.13
2019-03-23T12:52:06.751Z,41.03
2019-03-23T12:54:32.380Z,40.97
2019-03-23T12:56:58.067Z,39.60
2019-03-23T12:59:23.688Z,40.87
2019-03-23T13:01:49.329Z,38.67
2019-03-23T13:04:15.508Z,35.97
2019-03-23T13:06:42.613Z,37.63
2019-03-23T13:09:08.752Z,35.20
2019-03-23T13:11:35.377Z,32.27
2019-03-23T13:14:01.690Z,33.87
2019-03-23T13:16:27.221Z,33.40
2019-03-23T13:18:53.391Z,31.57
2019-03-23T13:21:18.943Z,28.17
2019-03-23T13:23:44.481Z,31.50
2019-03-23T13:26:10.077Z,33.00
2019-03-23T13:28:36.359Z,30.53
2019-03-23T13:31:02.730Z,29.50
2019-03-23T13:33:29.047Z,26.23
2019-03-23T13:35:54.663Z,21.97
2019-03-23T13:38:20.321Z,18.70
2019-03-23T13:43:45.957Z,15.57
2019-03-23T13:46:11.512Z,13.63
2019-03-23T13:48:38.055Z,10.53
2019-03-23T13:51:10.324Z,12.27
2019-03-23T13:53:37.686Z,11.00
2019-03-23T13:56:09.475Z,11.33
2019-03-23T13:58:35.318Z,10.40
2019-03-23T14:01:01.933Z,9.77
2019-03-23T14:03:30.794Z,8.30
2019-03-23T14:05:56.662Z,7.60
2019-03-23T14:08:23.330Z,6.10
2019-03-23T14:10:49.003Z,6.90
2019-03-23T14:13:14.649Z,6.37
2019-03-23T14:15:40.234Z,4.50
2019-03-23T14:18:05.854Z,5.83
2019-03-23T14:20:31.598Z,4.30
2019-03-23T14:23:02.940Z,5.00
2019-03-23T14:25:27.223Z,6.43
2019-03-23T14:27:52.913Z,5.10
2019-03-23T14:30:18.591Z,6.07
2019-03-23T14:32:44.216Z,4.33
2019-03-23T14:35:10.414Z,4.53
2019-03-23T14:37:44.250Z,4.33
2019-03-23T14:40:11.959Z,5.97
2019-03-23T14:42:37.655Z,5.43
2019-03-23T14:45:04.570Z,4.37
2019-03-23T14:47:30.177Z,4.07
2019-03-23T14:49:55.930Z,3.20
2019-03-23T14:52:21.793Z,3.83
2019-03-23T14:54:47.510Z,3.87
2019-03-23T14:57:13.168Z,3.03
2019-03-23T14:59:38.823Z,4.33
2019-03-23T15:02:04.397Z,4.87
2019-03-23T15:04:30.032Z,3.43
2019-03-23T15:06:55.566Z,4.90
2019-03-23T15:09:23.327Z,4.93
2019-03-23T15:11:48.887Z,5.50
2019-03-23T15:14:14.415Z,6.37
2019-03-23T15:16:42.347Z,5.60
2019-03-23T15:19:07.881Z,6.07
2019-03-23T15:21:33.413Z,4.50
2019-03-23T15:23:59.000Z,4.93
2019-03-23T15:26:24.581Z,4.93
2019-03-23T15:28:50.130Z,4.17
2019-03-23T15:31:15.680Z,4.63
2019-03-23T15:33:41.232Z,3.90
2019-03-23T15:36:06.780Z,5.20
2019-03-23T15:38:32.301Z,8.13
2019-03-23T15:40:57.886Z,6.07
2019-03-23T15:43:23.468Z,4.23
2019-03-23T15:45:49.140Z,4.60
2019-03-23T15:48:14.865Z,5.03
2019-03-23T15:50:40.455Z,4.50
2019-03-23T15:53:06.025Z,5.30
2019-03-23T15:55:31.569Z,5.47
2019-03-23T15:57:58.467Z,6.00
2019-03-23T16:00:24.217Z,4.60
2019-03-23T16:02:49.775Z,5.67
2019-03-23T16:05:15.467Z,9.53
2019-03-23T16:07:41.072Z,9.47
2019-03-23T16:10:07.194Z,7.97
2019-03-23T16:12:35.862Z,8.20
2019-03-23T16:15:02.911Z,8.43
2019-03-23T16:17:28.457Z,6.20
2019-03-23T16:19:58.100Z,7.40
2019-03-23T16:22:23.968Z,9.73
2019-03-23T16:24:49.560Z,7.77
2019-03-23T16:27:15.115Z,8.03
2019-03-23T16:29:41.591Z,7.27
2019-03-23T16:32:07.131Z,8.73
2019-03-23T16:34:32.757Z,10.73
2019-03-23T16:36:58.316Z,9.57
2019-03-23T16:39:24.999Z,8.50
2019-03-23T16:41:50.820Z,10.63
2019-03-23T16:44:17.258Z,10.07
2019-03-23T16:46:42.427Z,10.67
2019-03-23T16:49:07.642Z,7.23
2019-03-23T16:51:32.888Z,7.57
2019-03-23T16:53:58.826Z,7.03
2019-03-23T16:56:24.341Z,6.23
2019-03-23T16:58:49.997Z,6.67
2019-03-23T17:01:15.648Z,6.47
2019-03-23T17:03:41.203Z,7.60
2019-03-23T17:06:06.732Z,10.47
2019-03-23T17:08:33.364Z,11.53
2019-03-23T17:10:59.895Z,11.33
2019-03-23T17:13:25.607Z,9.40
2019-03-23T17:15:51.153Z,7.10
2019-03-23T17:18:16.731Z,10.97
2019-03-23T17:20:42.287Z,6.63
2019-03-23T17:23:07.795Z,6.43
2019-03-23T17:25:33.339Z,12.10
2019-03-23T17:27:58.882Z,10.43
2019-03-23T17:30:24.411Z,8.90
2019-03-23T17:32:49.951Z,9.63
2019-03-23T17:35:15.472Z,8.50
2019-03-23T17:37:41.008Z,9.63
2019-03-23T17:40:06.839Z,15.77
2019-03-23T17:42:32.442Z,10.40
2019-03-23T17:44:58.002Z,9.80
2019-03-23T17:47:23.543Z,10.70
2019-03-23T17:49:49.212Z,13.30
2019-03-23T17:52:14.726Z,11.47
2019-03-23T17:54:41.323Z,10.63
2019-03-23T17:57:06.851Z,11.13
2019-03-23T17:59:32.397Z,10.13
2019-03-23T18:01:57.930Z,8.03
2019-03-23T18:04:23.456Z,7.17
2019-03-23T18:06:49.103Z,8.20
2019-03-23T18:09:14.832Z,8.43
2019-03-23T18:11:42.149Z,9.40
2019-03-23T18:14:08.024Z,10.20
2019-03-23T18:16:33.722Z,8.90
2019-03-23T18:18:59.255Z,8.40
2019-03-23T18:21:24.783Z,10.97
2019-03-23T18:23:51.343Z,9.90
2019-03-23T18:26:16.898Z,17.47
2019-03-23T18:28:42.432Z,17.60
2019-03-23T18:31:08.098Z,11.50
2019-03-23T18:33:33.627Z,9.20
2019-03-23T18:35:59.200Z,10.80
2019-03-23T18:38:24.731Z,8.73
2019-03-23T18:40:50.402Z,11.30
2019-03-23T18:43:26.723Z,10.00
2019-03-23T18:45:43.835Z,10.27
2019-03-23T18:48:09.379Z,15.23
2019-03-23T18:50:34.954Z,16.60
2019-03-23T18:53:00.503Z,16.70
2019-03-23T18:55:26.051Z,11.63
2019-03-23T18:57:51.687Z,12.37
2019-03-23T19:00:36.471Z,11.33
2019-03-23T19:03:02.088Z,11.47
2019-03-23T19:05:27.639Z,15.87
2019-03-23T19:07:53.183Z,14.80
2019-03-23T19:10:18.837Z,12.60
2019-03-23T19:12:45.402Z,13.50
2019-03-23T19:15:11.088Z,11.63
2019-03-23T19:17:36.656Z,11.40
2019-03-23T19:20:03.891Z,11.57
2019-03-23T19:22:29.436Z,12.90
2019-03-23T19:24:55.089Z,18.60
2019-03-23T19:27:20.988Z,16.77
2019-03-23T19:29:46.525Z,15.70
2019-03-23T19:32:12.043Z,17.20
2019-03-23T19:34:38.599Z,13.50
2019-03-23T19:37:06.055Z,13.10
2019-03-23T19:39:31.741Z,10.93
2019-03-23T19:41:57.258Z,14.50
2019-03-23T19:44:22.804Z,15.37
2019-03-23T19:46:48.396Z,13.70
2019-03-23T19:49:16.758Z,13.57
2019-03-23T19:51:42.280Z,14.10
2019-03-23T19:54:07.839Z,24.17
2019-03-23T19:56:33.602Z,21.70
2019-03-23T19:59:01.098Z,17.90
2019-03-23T20:01:26.737Z,15.70
2019-03-23T20:03:52.366Z,15.70
2019-03-23T20:06:17.906Z,19.23
2019-03-23T20:08:46.554Z,21.27
2019-03-23T20:11:13.081Z,22.03
2019-03-23T20:13:38.591Z,20.23
2019-03-23T20:16:04.172Z,16.97
2019-03-23T20:18:31.726Z,18.60
2019-03-23T20:20:58.812Z,19.90
2019-03-23T20:23:24.367Z,16.33
2019-03-23T20:25:49.885Z,15.87
2019-03-23T20:28:16.514Z,20.63
2019-03-23T20:30:42.223Z,19.03
2019-03-23T20:33:19.106Z,18.17
2019-03-23T20:35:37.472Z,18.13
2019-03-23T20:38:03.008Z,19.10
2019-03-23T20:40:28.532Z,16.83
2019-03-23T20:42:54.067Z,22.30
2019-03-23T20:45:24.288Z,20.47
2019-03-23T20:47:49.855Z,19.90
2019-03-23T20:50:15.586Z,15.03
2019-03-23T20:52:41.307Z,13.37
2019-03-23T20:55:22.987Z,14.93
2019-03-23T20:57:48.624Z,12.77
2019-03-23T21:00:14.169Z,12.90
2019-03-23T21:02:39.828Z,11.07
2019-03-23T21:05:05.574Z,12.00
2019-03-23T21:07:37.143Z,9.03
2019-03-23T21:10:05.556Z,9.87
2019-03-23T21:12:32.110Z,9.80
2019-03-23T21:14:59.849Z,9.47
2019-03-23T21:17:25.427Z,7.53
2019-03-23T21:19:54.168Z,8.13
2019-03-23T21:22:19.738Z,8.40
2019-03-23T21:24:45.323Z,8.97
2019-03-23T21:27:10.906Z,7.73
2019-03-23T21:29:36.457Z,7.73
2019-03-23T21:32:03.322Z,8.07
2019-03-23T21:34:28.964Z,8.30
2019-03-23T21:36:54.590Z,9.00
2019-03-23T21:39:20.199Z,8.43
2019-03-23T21:41:45.719Z,8.30
2019-03-23T21:44:13.158Z,8.70
2019-03-23T21:46:38.741Z,8.80
2019-03-23T21:49:04.263Z,6.93
2019-03-23T21:51:29.812Z,8.40
2019-03-23T21:53:55.378Z,7.43
2019-03-23T21:56:20.978Z,9.17
2019-03-23T21:58:46.523Z,8.73
2019-03-23T22:01:13.082Z,11.97
2019-03-23T22:03:40.123Z,11.10
2019-03-23T22:06:05.840Z,8.80
2019-03-23T22:08:31.519Z,9.87
2019-03-23T22:10:57.177Z,9.33
2019-03-23T22:13:22.708Z,10.77
2019-03-23T22:15:48.383Z,9.20
2019-03-23T22:18:13.899Z,8.83
2019-03-23T22:20:39.451Z,9.53
2019-03-23T22:23:05.146Z,9.77
2019-03-23T22:25:30.759Z,7.40
2019-03-23T22:27:56.407Z,7.20
2019-03-23T22:30:21.988Z,8.50
2019-03-23T22:32:47.620Z,8.70
2019-03-23T22:35:13.174Z,12.00
2019-03-23T22:37:38.926Z,8.90
2019-03-23T22:40:05.232Z,7.57
2019-03-23T22:42:31.149Z,11.50
2019-03-23T22:44:57.408Z,7.40
2019-03-23T22:47:23.034Z,9.07
2019-03-23T22:49:48.865Z,7.97
2019-03-23T22:52:14.452Z,7.13
2019-03-23T22:54:40.088Z,7.13
2019-03-23T22:57:05.912Z,7.47
2019-03-23T22:59:31.663Z,7.43
2019-03-23T23:02:13.020Z,7.70
2019-03-23T23:04:44.030Z,7.13
2019-03-23T23:07:10.296Z,7.57
2019-03-23T23:09:36.226Z,7.87
2019-03-23T23:12:01.947Z,8.30
2019-03-23T23:14:27.646Z,8.33
2019-03-23T23:16:58.497Z,8.93
2019-03-23T23:19:43.271Z,8.97
2019-03-23T23:24:55.563Z,9.23
2019-03-23T23:27:21.670Z,8.67
2019-03-23T23:29:47.254Z,7.77
2019-03-23T23:32:12.895Z,10.00
2019-03-23T23:34:38.937Z,8.80
2019-03-23T23:37:06.659Z,8.60
2019-03-23T23:39:32.220Z,7.20
2019-03-23T23:41:57.902Z,9.17
2019-03-23T23:44:23.602Z,7.60
2019-03-23T23:46:49.203Z,9.20
2019-03-23T23:49:14.909Z,11.20
2019-03-23T23:51:49.794Z,16.03
2019-03-23T23:54:08.095Z,7.83
2019-03-23T23:56:33.946Z,7.90
2019-03-23T23:58:59.855Z,6.90
